sensor_id;sensor_type;location;lat;lon;timestamp;temperature;humidity
14737;DHT22;7459;53.590;10.062;2023-09-12T00:01:34;21.10;99.90
14737;DHT22;7459;53.590;10.062;2023-09-12T00:04:00;21.00;99.90
14737;DHT22;7459;53.590;10.062;2023-09-12T00:06:26;21.00;99.90
14737;DHT22;7459;53.590;10.062;2023-09-12T00:08:52;20.90;99.90
14737;DHT22;7459;53.590;10.062;2023-09-12T00:11:18;20.90;99.90
14737;DHT22;7459;53.590;10.062;2023-09-12T00:13:44;20.80;99.90
14737;DHT22;7459;53.590;10.062;2023-09-12T00:16:10;20.80;99.90
14737;DHT22;7459;53.590;10.062;2023-09-12T00:18:36;20.80;99.90
14737;DHT22;7459;53.590;10.062;2023-09-12T00:21:03;20.80;99.90
14737;DHT22;7459;53.590;10.062;2023-09-12T00:23:29;20.70;99.90
14737;DHT22;7459;53.590;10.062;2023-09-12T00:25:56;20.70;99.90
14737;DHT22;7459;53.590;10.062;2023-09-12T00:28:22;20.70;99.90
14737;DHT22;7459;53.590;10.062;2023-09-12T00:30:48;20.60;99.90
14737;DHT22;7459;53.590;10.062;2023-09-12T00:33:14;20.70;99.90
14737;DHT22;7459;53.590;10.062;2023-09-12T00:35:39;20.70;99.90
14737;DHT22;7459;53.590;10.062;2023-09-12T00:38:05;20.70;99.90
14737;DHT22;7459;53.590;10.062;2023-09-12T00:40:32;20.60;99.90
14737;DHT22;7459;53.590;10.062;2023-09-12T00:42:58;20.60;99.90
14737;DHT22;7459;53.590;10.062;2023-09-12T00:45:24;20.60;99.90
14737;DHT22;7459;53.590;10.062;2023-09-12T00:47:51;20.60;99.90
14737;DHT22;7459;53.590;10.062;2023-09-12T00:50:19;20.60;99.90
14737;DHT22;7459;53.590;10.062;2023-09-12T00:52:46;20.60;99.90
14737;DHT22;7459;53.590;10.062;2023-09-12T00:55:13;20.50;99.90
14737;DHT22;7459;53.590;10.062;2023-09-12T00:57:39;20.60;99.90
14737;DHT22;7459;53.590;10.062;2023-09-12T01:00:07;20.50;99.90
14737;DHT22;7459;53.590;10.062;2023-09-12T01:02:43;20.60;99.90
14737;DHT22;7459;53.590;10.062;2023-09-12T01:05:11;20.50;99.90
14737;DHT22;7459;53.590;10.062;2023-09-12T01:07:38;20.60;99.90
14737;DHT22;7459;53.590;10.062;2023-09-12T01:10:05;20.50;99.90
14737;DHT22;7459;53.590;10.062;2023-09-12T01:12:31;20.50;99.90
14737;DHT22;7459;53.590;10.062;2023-09-12T01:14:57;20.50;99.90
14737;DHT22;7459;53.590;10.062;2023-09-12T01:17:24;20.50;99.90
14737;DHT22;7459;53.590;10.062;2023-09-12T01:19:50;20.40;99.90
14737;DHT22;7459;53.590;10.062;2023-09-12T01:22:56;20.40;99.90
14737;DHT22;7459;53.590;10.062;2023-09-12T01:28:30;20.40;99.90
14737;DHT22;7459;53.590;10.062;2023-09-12T01:30:58;20.50;99.90
14737;DHT22;7459;53.590;10.062;2023-09-12T01:33:26;20.60;99.90
14737;DHT22;7459;53.590;10.062;2023-09-12T01:35:52;20.70;99.90
14737;DHT22;7459;53.590;10.062;2023-09-12T01:38:18;20.80;99.90
14737;DHT22;7459;53.590;10.062;2023-09-12T01:40:51;20.90;99.90
14737;DHT22;7459;53.590;10.062;2023-09-12T01:43:21;21.00;99.90
14737;DHT22;7459;53.590;10.062;2023-09-12T01:45:54;21.10;99.90
14737;DHT22;7459;53.590;10.062;2023-09-12T01:48:23;21.00;99.90
14737;DHT22;7459;53.590;10.062;2023-09-12T01:50:52;21.10;99.90
14737;DHT22;7459;53.590;10.062;2023-09-12T01:53:18;21.20;99.90
14737;DHT22;7459;53.590;10.062;2023-09-12T01:55:45;21.20;99.90
14737;DHT22;7459;53.590;10.062;2023-09-12T01:58:12;21.30;99.90
14737;DHT22;7459;53.590;10.062;2023-09-12T02:00:39;21.30;99.90
14737;DHT22;7459;53.590;10.062;2023-09-12T02:05:41;21.30;99.90
14737;DHT22;7459;53.590;10.062;2023-09-12T02:08:07;21.20;99.90
14737;DHT22;7459;53.590;10.062;2023-09-12T02:10:32;21.00;99.90
14737;DHT22;7459;53.590;10.062;2023-09-12T02:12:58;20.80;99.90
14737;DHT22;7459;53.590;10.062;2023-09-12T02:15:24;20.60;99.90
14737;DHT22;7459;53.590;10.062;2023-09-12T02:17:49;20.50;99.90
14737;DHT22;7459;53.590;10.062;2023-09-12T02:20:17;20.40;99.90
14737;DHT22;7459;53.590;10.062;2023-09-12T02:22:42;20.30;99.90
14737;DHT22;7459;53.590;10.062;2023-09-12T02:25:09;20.30;99.90
14737;DHT22;7459;53.590;10.062;2023-09-12T02:27:35;20.30;99.90
14737;DHT22;7459;53.590;10.062;2023-09-12T02:30:00;20.20;99.90
14737;DHT22;7459;53.590;10.062;2023-09-12T02:32:26;20.20;99.90
14737;DHT22;7459;53.590;10.062;2023-09-12T02:34:52;20.20;99.90
14737;DHT22;7459;53.590;10.062;2023-09-12T02:37:19;20.10;99.90
14737;DHT22;7459;53.590;10.062;2023-09-12T02:39:44;20.10;99.90
14737;DHT22;7459;53.590;10.062;2023-09-12T02:42:10;20.20;99.90
14737;DHT22;7459;53.590;10.062;2023-09-12T02:44:36;20.20;99.90
14737;DHT22;7459;53.590;10.062;2023-09-12T02:47:04;20.20;99.90
14737;DHT22;7459;53.590;10.062;2023-09-12T02:49:30;20.20;99.90
14737;DHT22;7459;53.590;10.062;2023-09-12T02:51:56;20.20;99.90
14737;DHT22;7459;53.590;10.062;2023-09-12T02:54:21;20.20;99.90
14737;DHT22;7459;53.590;10.062;2023-09-12T02:56:47;20.20;99.90
14737;DHT22;7459;53.590;10.062;2023-09-12T02:59:13;20.10;99.90
14737;DHT22;7459;53.590;10.062;2023-09-12T03:01:38;20.20;99.90
14737;DHT22;7459;53.590;10.062;2023-09-12T03:04:04;20.20;99.90
14737;DHT22;7459;53.590;10.062;2023-09-12T03:06:30;20.20;99.90
14737;DHT22;7459;53.590;10.062;2023-09-12T03:08:56;20.40;99.90
14737;DHT22;7459;53.590;10.062;2023-09-12T03:11:21;20.50;99.90
14737;DHT22;7459;53.590;10.062;2023-09-12T03:13:47;20.40;99.90
14737;DHT22;7459;53.590;10.062;2023-09-12T03:16:14;20.40;99.90
14737;DHT22;7459;53.590;10.062;2023-09-12T03:18:40;20.40;99.90
14737;DHT22;7459;53.590;10.062;2023-09-12T03:21:06;20.30;99.90
14737;DHT22;7459;53.590;10.062;2023-09-12T03:23:32;20.30;99.90
14737;DHT22;7459;53.590;10.062;2023-09-12T03:26:05;20.30;99.90
14737;DHT22;7459;53.590;10.062;2023-09-12T03:28:31;20.20;99.90
14737;DHT22;7459;53.590;10.062;2023-09-12T03:31:12;20.20;99.90
14737;DHT22;7459;53.590;10.062;2023-09-12T03:33:40;20.10;99.90
14737;DHT22;7459;53.590;10.062;2023-09-12T03:36:07;20.20;99.90
14737;DHT22;7459;53.590;10.062;2023-09-12T03:38:33;20.20;99.90
14737;DHT22;7459;53.590;10.062;2023-09-12T03:40:59;20.30;99.90
14737;DHT22;7459;53.590;10.062;2023-09-12T03:43:25;20.30;99.90
14737;DHT22;7459;53.590;10.062;2023-09-12T03:45:51;20.40;99.90
14737;DHT22;7459;53.590;10.062;2023-09-12T03:48:17;20.50;99.90
14737;DHT22;7459;53.590;10.062;2023-09-12T03:50:42;20.60;99.90
14737;DHT22;7459;53.590;10.062;2023-09-12T03:53:08;20.60;99.90
14737;DHT22;7459;53.590;10.062;2023-09-12T03:55:34;20.70;99.90
14737;DHT22;7459;53.590;10.062;2023-09-12T03:58:00;20.80;99.90
14737;DHT22;7459;53.590;10.062;2023-09-12T04:00:25;20.80;99.90
14737;DHT22;7459;53.590;10.062;2023-09-12T04:02:51;20.90;99.90
14737;DHT22;7459;53.590;10.062;2023-09-12T04:05:17;20.80;99.90
14737;DHT22;7459;53.590;10.062;2023-09-12T04:07:43;20.80;99.90
14737;DHT22;7459;53.590;10.062;2023-09-12T04:10:09;20.90;99.90
14737;DHT22;7459;53.590;10.062;2023-09-12T04:12:34;20.90;99.90
14737;DHT22;7459;53.590;10.062;2023-09-12T04:15:00;21.00;99.90
14737;DHT22;7459;53.590;10.062;2023-09-12T04:17:26;20.90;99.90
14737;DHT22;7459;53.590;10.062;2023-09-12T04:19:51;21.00;99.90
14737;DHT22;7459;53.590;10.062;2023-09-12T04:22:17;21.00;99.90
14737;DHT22;7459;53.590;10.062;2023-09-12T04:24:43;21.10;99.90
14737;DHT22;7459;53.590;10.062;2023-09-12T04:27:08;21.20;99.90
14737;DHT22;7459;53.590;10.062;2023-09-12T04:29:34;21.20;99.90
14737;DHT22;7459;53.590;10.062;2023-09-12T04:32:03;21.20;99.90
14737;DHT22;7459;53.590;10.062;2023-09-12T04:34:30;21.20;99.90
14737;DHT22;7459;53.590;10.062;2023-09-12T04:36:56;21.20;99.90
14737;DHT22;7459;53.590;10.062;2023-09-12T04:39:22;21.20;99.90
14737;DHT22;7459;53.590;10.062;2023-09-12T04:41:48;21.20;99.90
14737;DHT22;7459;53.590;10.062;2023-09-12T04:44:13;21.00;99.90
14737;DHT22;7459;53.590;10.062;2023-09-12T04:46:39;20.90;99.90
14737;DHT22;7459;53.590;10.062;2023-09-12T04:49:05;20.80;99.90
14737;DHT22;7459;53.590;10.062;2023-09-12T04:51:30;20.60;99.90
14737;DHT22;7459;53.590;10.062;2023-09-12T04:53:56;20.50;99.90
14737;DHT22;7459;53.590;10.062;2023-09-12T04:56:22;20.40;99.90
14737;DHT22;7459;53.590;10.062;2023-09-12T04:58:50;20.30;99.90
14737;DHT22;7459;53.590;10.062;2023-09-12T05:01:16;20.20;99.90
14737;DHT22;7459;53.590;10.062;2023-09-12T05:03:42;20.20;99.90
14737;DHT22;7459;53.590;10.062;2023-09-12T05:06:08;20.10;99.90
14737;DHT22;7459;53.590;10.062;2023-09-12T05:08:34;20.20;99.90
14737;DHT22;7459;53.590;10.062;2023-09-12T05:10:59;20.20;99.90
14737;DHT22;7459;53.590;10.062;2023-09-12T05:13:25;20.30;99.90
14737;DHT22;7459;53.590;10.062;2023-09-12T05:15:51;20.40;99.90
14737;DHT22;7459;53.590;10.062;2023-09-12T05:18:16;20.40;99.90
14737;DHT22;7459;53.590;10.062;2023-09-12T05:20:42;20.30;99.90
14737;DHT22;7459;53.590;10.062;2023-09-12T05:23:08;20.10;99.90
14737;DHT22;7459;53.590;10.062;2023-09-12T05:25:34;20.20;99.90
14737;DHT22;7459;53.590;10.062;2023-09-12T05:27:59;20.20;99.90
14737;DHT22;7459;53.590;10.062;2023-09-12T05:30:25;20.30;99.90
14737;DHT22;7459;53.590;10.062;2023-09-12T05:32:51;20.40;99.90
14737;DHT22;7459;53.590;10.062;2023-09-12T05:35:17;20.40;99.90
14737;DHT22;7459;53.590;10.062;2023-09-12T05:37:43;20.50;99.90
14737;DHT22;7459;53.590;10.062;2023-09-12T05:40:09;20.50;99.90
14737;DHT22;7459;53.590;10.062;2023-09-12T05:42:35;20.60;99.90
14737;DHT22;7459;53.590;10.062;2023-09-12T05:45:01;20.60;99.90
14737;DHT22;7459;53.590;10.062;2023-09-12T05:47:27;20.70;99.90
14737;DHT22;7459;53.590;10.062;2023-09-12T05:49:53;20.70;99.90
14737;DHT22;7459;53.590;10.062;2023-09-12T05:52:19;20.70;99.90
14737;DHT22;7459;53.590;10.062;2023-09-12T05:54:45;20.80;99.90
14737;DHT22;7459;53.590;10.062;2023-09-12T05:57:11;20.80;99.90
14737;DHT22;7459;53.590;10.062;2023-09-12T05:59:37;20.70;99.90
14737;DHT22;7459;53.590;10.062;2023-09-12T06:02:05;20.60;99.90
14737;DHT22;7459;53.590;10.062;2023-09-12T06:04:32;20.60;99.90
14737;DHT22;7459;53.590;10.062;2023-09-12T06:06:58;20.60;99.90
14737;DHT22;7459;53.590;10.062;2023-09-12T06:09:24;20.70;99.90
14737;DHT22;7459;53.590;10.062;2023-09-12T06:11:50;20.70;99.90
14737;DHT22;7459;53.590;10.062;2023-09-12T06:14:16;20.80;99.90
14737;DHT22;7459;53.590;10.062;2023-09-12T06:16:42;20.80;99.90
14737;DHT22;7459;53.590;10.062;2023-09-12T06:19:07;20.80;99.90
14737;DHT22;7459;53.590;10.062;2023-09-12T06:21:33;20.90;99.90
14737;DHT22;7459;53.590;10.062;2023-09-12T06:24:13;20.80;99.90
14737;DHT22;7459;53.590;10.062;2023-09-12T06:26:40;20.80;99.90
14737;DHT22;7459;53.590;10.062;2023-09-12T06:29:07;20.80;99.90
14737;DHT22;7459;53.590;10.062;2023-09-12T06:31:33;20.80;99.90
14737;DHT22;7459;53.590;10.062;2023-09-12T06:33:59;20.70;99.90
14737;DHT22;7459;53.590;10.062;2023-09-12T06:36:25;20.70;99.90
14737;DHT22;7459;53.590;10.062;2023-09-12T06:38:52;20.70;99.90
14737;DHT22;7459;53.590;10.062;2023-09-12T06:41:21;20.70;99.90
14737;DHT22;7459;53.590;10.062;2023-09-12T06:43:46;20.80;99.90
14737;DHT22;7459;53.590;10.062;2023-09-12T06:46:12;20.80;99.90
14737;DHT22;7459;53.590;10.062;2023-09-12T06:48:38;20.90;99.90
14737;DHT22;7459;53.590;10.062;2023-09-12T06:51:05;20.70;99.90
14737;DHT22;7459;53.590;10.062;2023-09-12T06:53:33;20.60;99.90
14737;DHT22;7459;53.590;10.062;2023-09-12T06:55:59;20.60;99.90
14737;DHT22;7459;53.590;10.062;2023-09-12T06:58:25;20.60;99.90
14737;DHT22;7459;53.590;10.062;2023-09-12T07:00:51;20.60;99.90
14737;DHT22;7459;53.590;10.062;2023-09-12T07:03:16;20.60;99.90
14737;DHT22;7459;53.590;10.062;2023-09-12T07:05:42;20.70;99.90
14737;DHT22;7459;53.590;10.062;2023-09-12T07:08:08;20.80;99.90
14737;DHT22;7459;53.590;10.062;2023-09-12T07:10:34;20.80;99.90
14737;DHT22;7459;53.590;10.062;2023-09-12T07:13:01;20.90;99.90
14737;DHT22;7459;53.590;10.062;2023-09-12T07:15:27;21.00;99.90
14737;DHT22;7459;53.590;10.062;2023-09-12T07:17:53;21.00;99.90
14737;DHT22;7459;53.590;10.062;2023-09-12T07:20:19;20.90;99.90
14737;DHT22;7459;53.590;10.062;2023-09-12T07:22:46;20.90;99.90
14737;DHT22;7459;53.590;10.062;2023-09-12T07:25:13;20.80;99.90
14737;DHT22;7459;53.590;10.062;2023-09-12T07:27:39;20.90;99.90
14737;DHT22;7459;53.590;10.062;2023-09-12T07:30:06;20.90;99.90
14737;DHT22;7459;53.590;10.062;2023-09-12T07:32:32;20.80;99.90
14737;DHT22;7459;53.590;10.062;2023-09-12T07:34:58;20.80;99.90
14737;DHT22;7459;53.590;10.062;2023-09-12T07:37:23;20.90;99.90
14737;DHT22;7459;53.590;10.062;2023-09-12T07:39:49;20.80;99.90
14737;DHT22;7459;53.590;10.062;2023-09-12T07:42:15;20.90;99.90
14737;DHT22;7459;53.590;10.062;2023-09-12T07:44:40;20.90;99.90
14737;DHT22;7459;53.590;10.062;2023-09-12T07:47:07;20.90;99.90
14737;DHT22;7459;53.590;10.062;2023-09-12T07:49:33;20.90;99.90
14737;DHT22;7459;53.590;10.062;2023-09-12T07:51:59;20.90;99.90
14737;DHT22;7459;53.590;10.062;2023-09-12T07:54:24;21.00;99.90
14737;DHT22;7459;53.590;10.062;2023-09-12T07:56:50;21.00;99.90
14737;DHT22;7459;53.590;10.062;2023-09-12T07:59:16;21.10;99.90
14737;DHT22;7459;53.590;10.062;2023-09-12T08:01:42;21.10;99.90
14737;DHT22;7459;53.590;10.062;2023-09-12T08:04:07;21.10;99.90
14737;DHT22;7459;53.590;10.062;2023-09-12T08:06:33;21.20;99.90
14737;DHT22;7459;53.590;10.062;2023-09-12T08:08:59;21.20;99.90
14737;DHT22;7459;53.590;10.062;2023-09-12T08:11:25;21.20;99.90
14737;DHT22;7459;53.590;10.062;2023-09-12T08:13:52;21.20;99.90
14737;DHT22;7459;53.590;10.062;2023-09-12T08:16:18;21.10;99.90
14737;DHT22;7459;53.590;10.062;2023-09-12T08:18:43;21.00;99.90
14737;DHT22;7459;53.590;10.062;2023-09-12T08:21:10;21.00;99.90
14737;DHT22;7459;53.590;10.062;2023-09-12T08:23:36;21.00;99.90
14737;DHT22;7459;53.590;10.062;2023-09-12T08:26:02;21.00;99.90
14737;DHT22;7459;53.590;10.062;2023-09-12T08:28:28;21.00;99.90
14737;DHT22;7459;53.590;10.062;2023-09-12T08:30:53;21.10;99.90
14737;DHT22;7459;53.590;10.062;2023-09-12T08:33:19;21.10;99.90
14737;DHT22;7459;53.590;10.062;2023-09-12T08:35:45;21.20;99.90
14737;DHT22;7459;53.590;10.062;2023-09-12T08:38:10;21.20;99.90
14737;DHT22;7459;53.590;10.062;2023-09-12T08:40:37;21.30;99.90
14737;DHT22;7459;53.590;10.062;2023-09-12T08:43:03;21.30;99.90
14737;DHT22;7459;53.590;10.062;2023-09-12T08:45:29;21.30;99.90
14737;DHT22;7459;53.590;10.062;2023-09-12T08:47:58;21.30;99.90
14737;DHT22;7459;53.590;10.062;2023-09-12T08:50:26;21.40;99.90
14737;DHT22;7459;53.590;10.062;2023-09-12T08:52:56;21.50;99.90
14737;DHT22;7459;53.590;10.062;2023-09-12T08:55:22;21.50;99.90
14737;DHT22;7459;53.590;10.062;2023-09-12T08:57:50;21.50;99.90
14737;DHT22;7459;53.590;10.062;2023-09-12T09:00:16;21.50;99.90
14737;DHT22;7459;53.590;10.062;2023-09-12T09:02:43;21.50;99.90
14737;DHT22;7459;53.590;10.062;2023-09-12T09:05:11;21.50;99.90
14737;DHT22;7459;53.590;10.062;2023-09-12T09:07:38;21.60;99.90
14737;DHT22;7459;53.590;10.062;2023-09-12T09:10:07;21.50;99.90
14737;DHT22;7459;53.590;10.062;2023-09-12T09:12:34;21.50;99.90
14737;DHT22;7459;53.590;10.062;2023-09-12T09:15:24;21.40;99.90
14737;DHT22;7459;53.590;10.062;2023-09-12T09:17:52;21.50;99.90
14737;DHT22;7459;53.590;10.062;2023-09-12T09:23:03;21.40;99.90
14737;DHT22;7459;53.590;10.062;2023-09-12T09:25:41;21.40;99.90
14737;DHT22;7459;53.590;10.062;2023-09-12T09:28:18;21.50;99.90
14737;DHT22;7459;53.590;10.062;2023-09-12T09:30:46;21.50;99.90
14737;DHT22;7459;53.590;10.062;2023-09-12T09:33:13;21.60;99.90
14737;DHT22;7459;53.590;10.062;2023-09-12T09:35:41;21.60;99.90
14737;DHT22;7459;53.590;10.062;2023-09-12T09:38:08;21.60;99.90
14737;DHT22;7459;53.590;10.062;2023-09-12T09:40:35;21.60;99.90
14737;DHT22;7459;53.590;10.062;2023-09-12T09:43:02;21.60;99.90
14737;DHT22;7459;53.590;10.062;2023-09-12T09:45:32;21.60;99.90
14737;DHT22;7459;53.590;10.062;2023-09-12T09:48:06;21.60;99.90
14737;DHT22;7459;53.590;10.062;2023-09-12T09:50:34;21.60;99.90
14737;DHT22;7459;53.590;10.062;2023-09-12T09:53:02;21.70;99.90
14737;DHT22;7459;53.590;10.062;2023-09-12T09:55:30;21.70;99.90
14737;DHT22;7459;53.590;10.062;2023-09-12T09:57:56;21.60;99.90
14737;DHT22;7459;53.590;10.062;2023-09-12T10:00:22;21.60;99.90
14737;DHT22;7459;53.590;10.062;2023-09-12T10:02:50;21.60;99.90
14737;DHT22;7459;53.590;10.062;2023-09-12T10:05:17;21.60;99.90
14737;DHT22;7459;53.590;10.062;2023-09-12T10:07:47;21.60;99.90
14737;DHT22;7459;53.590;10.062;2023-09-12T10:10:17;21.60;99.90
14737;DHT22;7459;53.590;10.062;2023-09-12T10:12:57;21.50;99.90
14737;DHT22;7459;53.590;10.062;2023-09-12T10:15:28;21.50;99.90
14737;DHT22;7459;53.590;10.062;2023-09-12T10:17:58;21.50;99.90
14737;DHT22;7459;53.590;10.062;2023-09-12T10:20:37;21.50;99.90
14737;DHT22;7459;53.590;10.062;2023-09-12T10:23:08;21.50;99.90
14737;DHT22;7459;53.590;10.062;2023-09-12T10:25:38;21.50;99.90
14737;DHT22;7459;53.590;10.062;2023-09-12T10:28:05;21.50;99.90
14737;DHT22;7459;53.590;10.062;2023-09-12T10:30:32;21.40;99.90
14737;DHT22;7459;53.590;10.062;2023-09-12T10:33:00;21.40;99.90
14737;DHT22;7459;53.590;10.062;2023-09-12T10:35:27;21.40;99.90
14737;DHT22;7459;53.590;10.062;2023-09-12T10:37:54;21.40;99.90
14737;DHT22;7459;53.590;10.062;2023-09-12T10:40:23;21.40;99.90
14737;DHT22;7459;53.590;10.062;2023-09-12T10:42:51;21.40;99.90
14737;DHT22;7459;53.590;10.062;2023-09-12T10:45:17;21.40;99.90
14737;DHT22;7459;53.590;10.062;2023-09-12T10:47:44;21.40;99.90
14737;DHT22;7459;53.590;10.062;2023-09-12T10:50:10;21.50;99.90
14737;DHT22;7459;53.590;10.062;2023-09-12T10:52:36;21.40;99.90
14737;DHT22;7459;53.590;10.062;2023-09-12T10:55:05;21.50;99.90
14737;DHT22;7459;53.590;10.062;2023-09-12T10:57:32;21.40;99.90
14737;DHT22;7459;53.590;10.062;2023-09-12T11:02:40;21.50;99.90
14737;DHT22;7459;53.590;10.062;2023-09-12T11:05:07;21.50;99.90
14737;DHT22;7459;53.590;10.062;2023-09-12T11:07:56;21.50;99.90
14737;DHT22;7459;53.590;10.062;2023-09-12T11:10:23;21.50;99.90
14737;DHT22;7459;53.590;10.062;2023-09-12T11:12:56;21.40;99.90
14737;DHT22;7459;53.590;10.062;2023-09-12T11:15:27;21.40;99.90
14737;DHT22;7459;53.590;10.062;2023-09-12T11:18:01;21.40;99.90
14737;DHT22;7459;53.590;10.062;2023-09-12T11:20:49;21.40;99.90
14737;DHT22;7459;53.590;10.062;2023-09-12T11:23:19;21.40;99.90
14737;DHT22;7459;53.590;10.062;2023-09-12T11:25:45;21.40;99.90
14737;DHT22;7459;53.590;10.062;2023-09-12T11:28:10;21.40;99.90
14737;DHT22;7459;53.590;10.062;2023-09-12T11:30:36;21.40;99.90
14737;DHT22;7459;53.590;10.062;2023-09-12T11:33:05;21.40;99.90
14737;DHT22;7459;53.590;10.062;2023-09-12T11:35:37;21.40;99.90
14737;DHT22;7459;53.590;10.062;2023-09-12T11:38:03;21.40;99.90
14737;DHT22;7459;53.590;10.062;2023-09-12T11:42:58;21.40;99.90
14737;DHT22;7459;53.590;10.062;2023-09-12T11:45:23;21.40;99.90
14737;DHT22;7459;53.590;10.062;2023-09-12T11:47:50;21.40;99.90
14737;DHT22;7459;53.590;10.062;2023-09-12T11:50:35;21.40;99.90
14737;DHT22;7459;53.590;10.062;2023-09-12T11:53:11;21.40;99.90
14737;DHT22;7459;53.590;10.062;2023-09-12T11:55:47;21.40;99.90
14737;DHT22;7459;53.590;10.062;2023-09-12T11:58:17;21.40;99.90
14737;DHT22;7459;53.590;10.062;2023-09-12T12:00:47;21.40;99.90
14737;DHT22;7459;53.590;10.062;2023-09-12T12:03:19;21.40;99.90
14737;DHT22;7459;53.590;10.062;2023-09-12T12:05:46;21.40;99.90
14737;DHT22;7459;53.590;10.062;2023-09-12T12:08:12;21.50;99.90
14737;DHT22;7459;53.590;10.062;2023-09-12T12:10:39;21.40;99.90
14737;DHT22;7459;53.590;10.062;2023-09-12T12:13:06;21.40;99.90
14737;DHT22;7459;53.590;10.062;2023-09-12T12:15:36;21.40;99.90
14737;DHT22;7459;53.590;10.062;2023-09-12T12:18:01;21.50;99.90
14737;DHT22;7459;53.590;10.062;2023-09-12T12:20:27;21.40;99.90
14737;DHT22;7459;53.590;10.062;2023-09-12T12:22:55;21.40;99.90
14737;DHT22;7459;53.590;10.062;2023-09-12T12:25:21;21.50;99.90
14737;DHT22;7459;53.590;10.062;2023-09-12T12:27:47;21.50;99.90
14737;DHT22;7459;53.590;10.062;2023-09-12T12:30:13;21.50;99.90
14737;DHT22;7459;53.590;10.062;2023-09-12T12:32:44;21.50;99.90
14737;DHT22;7459;53.590;10.062;2023-09-12T12:35:22;21.50;99.90
14737;DHT22;7459;53.590;10.062;2023-09-12T12:37:49;21.50;99.90
14737;DHT22;7459;53.590;10.062;2023-09-12T12:40:16;21.50;99.90
14737;DHT22;7459;53.590;10.062;2023-09-12T12:42:44;21.50;99.90
14737;DHT22;7459;53.590;10.062;2023-09-12T12:45:14;21.60;99.90
14737;DHT22;7459;53.590;10.062;2023-09-12T12:47:41;21.60;99.90
14737;DHT22;7459;53.590;10.062;2023-09-12T12:50:16;21.60;99.90
14737;DHT22;7459;53.590;10.062;2023-09-12T12:52:46;21.60;99.90
14737;DHT22;7459;53.590;10.062;2023-09-12T12:55:13;21.50;99.90
14737;DHT22;7459;53.590;10.062;2023-09-12T12:57:41;21.40;99.90
14737;DHT22;7459;53.590;10.062;2023-09-12T13:00:18;21.40;99.90
14737;DHT22;7459;53.590;10.062;2023-09-12T13:02:44;21.40;99.90
14737;DHT22;7459;53.590;10.062;2023-09-12T13:07:53;21.30;99.90
14737;DHT22;7459;53.590;10.062;2023-09-12T13:10:20;21.30;99.90
14737;DHT22;7459;53.590;10.062;2023-09-12T13:12:47;21.30;99.90
14737;DHT22;7459;53.590;10.062;2023-09-12T13:15:13;21.40;99.90
14737;DHT22;7459;53.590;10.062;2023-09-12T13:17:41;21.40;99.90
14737;DHT22;7459;53.590;10.062;2023-09-12T13:20:08;21.40;99.90
14737;DHT22;7459;53.590;10.062;2023-09-12T13:22:34;21.50;99.90
14737;DHT22;7459;53.590;10.062;2023-09-12T13:25:00;21.50;99.90
14737;DHT22;7459;53.590;10.062;2023-09-12T13:27:27;21.50;99.90
14737;DHT22;7459;53.590;10.062;2023-09-12T13:29:53;21.50;99.90
14737;DHT22;7459;53.590;10.062;2023-09-12T13:32:18;21.50;99.90
14737;DHT22;7459;53.590;10.062;2023-09-12T13:34:45;21.50;99.90
14737;DHT22;7459;53.590;10.062;2023-09-12T13:37:10;21.60;99.90
14737;DHT22;7459;53.590;10.062;2023-09-12T13:39:36;21.50;99.90
14737;DHT22;7459;53.590;10.062;2023-09-12T13:42:02;21.50;99.90
14737;DHT22;7459;53.590;10.062;2023-09-12T13:44:29;21.50;99.90
14737;DHT22;7459;53.590;10.062;2023-09-12T13:46:55;21.60;99.90
14737;DHT22;7459;53.590;10.062;2023-09-12T13:49:21;21.60;99.90
14737;DHT22;7459;53.590;10.062;2023-09-12T13:51:46;21.60;99.90
14737;DHT22;7459;53.590;10.062;2023-09-12T13:54:12;21.60;99.90
14737;DHT22;7459;53.590;10.062;2023-09-12T13:56:44;21.60;99.90
14737;DHT22;7459;53.590;10.062;2023-09-12T13:59:10;21.60;99.90
14737;DHT22;7459;53.590;10.062;2023-09-12T14:01:37;21.60;99.90
14737;DHT22;7459;53.590;10.062;2023-09-12T14:04:03;21.60;99.90
14737;DHT22;7459;53.590;10.062;2023-09-12T14:06:29;21.60;99.90
14737;DHT22;7459;53.590;10.062;2023-09-12T14:08:55;21.60;99.90
14737;DHT22;7459;53.590;10.062;2023-09-12T14:11:20;21.60;99.90
14737;DHT22;7459;53.590;10.062;2023-09-12T14:13:46;21.60;99.90
14737;DHT22;7459;53.590;10.062;2023-09-12T14:16:12;21.60;99.90
14737;DHT22;7459;53.590;10.062;2023-09-12T14:18:38;21.60;99.90
14737;DHT22;7459;53.590;10.062;2023-09-12T14:21:04;21.60;99.90
14737;DHT22;7459;53.590;10.062;2023-09-12T14:23:29;21.60;99.90
14737;DHT22;7459;53.590;10.062;2023-09-12T14:25:55;21.60;99.90
14737;DHT22;7459;53.590;10.062;2023-09-12T14:28:21;21.60;99.90
14737;DHT22;7459;53.590;10.062;2023-09-12T14:30:47;21.60;99.90
14737;DHT22;7459;53.590;10.062;2023-09-12T14:33:14;21.60;99.90
14737;DHT22;7459;53.590;10.062;2023-09-12T14:35:40;21.60;99.90
14737;DHT22;7459;53.590;10.062;2023-09-12T14:38:08;21.60;99.90
14737;DHT22;7459;53.590;10.062;2023-09-12T14:40:34;21.60;99.90
14737;DHT22;7459;53.590;10.062;2023-09-12T14:43:00;21.70;99.90
14737;DHT22;7459;53.590;10.062;2023-09-12T14:45:28;21.70;99.90
14737;DHT22;7459;53.590;10.062;2023-09-12T14:47:53;21.70;99.90
14737;DHT22;7459;53.590;10.062;2023-09-12T14:50:21;21.80;99.90
14737;DHT22;7459;53.590;10.062;2023-09-12T14:52:49;21.80;99.90
14737;DHT22;7459;53.590;10.062;2023-09-12T14:55:15;21.80;99.90
14737;DHT22;7459;53.590;10.062;2023-09-12T14:57:42;21.80;99.90
14737;DHT22;7459;53.590;10.062;2023-09-12T15:00:07;21.80;99.90
14737;DHT22;7459;53.590;10.062;2023-09-12T15:02:33;21.80;99.90
14737;DHT22;7459;53.590;10.062;2023-09-12T15:05:00;21.80;99.90
14737;DHT22;7459;53.590;10.062;2023-09-12T15:07:30;21.80;99.90
14737;DHT22;7459;53.590;10.062;2023-09-12T15:09:56;21.90;99.90
14737;DHT22;7459;53.590;10.062;2023-09-12T15:12:22;21.90;99.90
14737;DHT22;7459;53.590;10.062;2023-09-12T15:14:49;21.90;99.90
14737;DHT22;7459;53.590;10.062;2023-09-12T15:17:16;21.90;99.90
14737;DHT22;7459;53.590;10.062;2023-09-12T15:19:45;21.90;99.90
14737;DHT22;7459;53.590;10.062;2023-09-12T15:22:11;21.90;99.90
14737;DHT22;7459;53.590;10.062;2023-09-12T15:24:37;21.90;99.90
14737;DHT22;7459;53.590;10.062;2023-09-12T15:27:03;21.90;99.90
14737;DHT22;7459;53.590;10.062;2023-09-12T15:29:29;21.90;99.90
14737;DHT22;7459;53.590;10.062;2023-09-12T15:31:54;21.90;99.90
14737;DHT22;7459;53.590;10.062;2023-09-12T15:34:20;21.90;99.90
14737;DHT22;7459;53.590;10.062;2023-09-12T15:36:47;21.90;99.90
14737;DHT22;7459;53.590;10.062;2023-09-12T15:39:14;21.90;99.90
14737;DHT22;7459;53.590;10.062;2023-09-12T15:41:40;21.90;99.90
14737;DHT22;7459;53.590;10.062;2023-09-12T15:44:06;21.90;99.90
14737;DHT22;7459;53.590;10.062;2023-09-12T15:46:32;21.90;99.90